createdAt,value
2022-11-02T13:44:30.648Z,14.50
2022-11-02T13:47:26.935Z,15.23
2022-11-02T13:50:03.478Z,15.43
2022-11-02T13:52:49.346Z,15.03
2022-11-02T13:55:50.362Z,14.70
2022-11-02T13:58:54.228Z,14.93
2022-11-02T14:01:53.419Z,15.33
2022-11-02T14:04:56.556Z,14.17
2022-11-02T14:07:47.405Z,14.87
2022-11-02T14:10:40.603Z,15.40
2022-11-02T14:13:22.184Z,14.20
2022-11-02T14:15:56.384Z,14.53
2022-11-02T14:18:34.178Z,14.70
2022-11-02T14:21:51.557Z,14.60
2022-11-02T14:25:11.249Z,14.47
2022-11-02T14:27:48.472Z,14.50
2022-11-02T14:30:44.499Z,12.53
2022-11-02T14:33:49.686Z,14.33
2022-11-02T14:36:58.370Z,14.20
2022-11-02T14:39:57.352Z,14.10
2022-11-02T14:43:09.599Z,13.93
2022-11-02T14:46:06.417Z,14.03
2022-11-02T14:48:58.367Z,14.23
2022-11-02T14:51:52.047Z,15.43
2022-11-02T14:54:51.671Z,14.60
2022-11-02T14:57:58.732Z,14.67
2022-11-02T15:01:13.662Z,15.00
2022-11-02T15:04:02.277Z,14.70
2022-11-02T15:06:49.354Z,14.47
2022-11-02T15:10:06.781Z,15.13
2022-11-02T15:12:49.821Z,14.80
2022-11-02T15:15:53.273Z,16.17
2022-11-02T15:18:32.660Z,15.80
2022-11-02T15:21:34.756Z,16.37
2022-11-02T15:24:45.769Z,18.47
2022-11-02T15:27:48.322Z,18.30
2022-11-02T15:30:31.246Z,15.90
2022-11-02T15:33:23.151Z,16.33
2022-11-02T15:36:20.842Z,16.37
2022-11-02T15:39:20.737Z,15.60
2022-11-02T15:42:24.272Z,16.43
2022-11-02T15:45:49.493Z,16.13
2022-11-02T15:49:07.093Z,15.43
2022-11-02T15:52:13.539Z,15.20
2022-11-02T15:55:10.923Z,15.17
2022-11-02T15:58:10.646Z,16.50
2022-11-02T16:01:45.039Z,17.07
2022-11-02T16:04:56.335Z,15.77
2022-11-02T16:08:10.901Z,15.47
2022-11-02T16:10:56.334Z,17.30
2022-11-02T16:14:09.087Z,18.23
2022-11-02T16:17:11.378Z,21.77
2022-11-02T16:20:29.350Z,20.80
2022-11-02T16:23:22.970Z,20.20
2022-11-02T16:26:09.806Z,17.73
2022-11-02T16:28:52.755Z,17.43
2022-11-02T16:32:05.770Z,16.97
2022-11-02T16:35:13.493Z,17.30
2022-11-02T16:37:59.345Z,17.80
2022-11-02T16:46:30.745Z,18.40
2022-11-02T16:49:17.492Z,18.40
2022-11-02T16:52:38.796Z,18.30
2022-11-02T16:55:51.586Z,17.67
2022-11-02T16:59:06.255Z,17.30
2022-11-02T17:02:02.441Z,18.20
2022-11-02T17:04:42.792Z,18.53
2022-11-02T17:07:33.814Z,19.83
2022-11-02T17:16:35.465Z,21.67
2022-11-02T17:20:03.665Z,22.17
2022-11-02T17:23:12.713Z,21.60
2022-11-02T17:26:07.797Z,27.40
2022-11-02T17:29:04.971Z,28.23
2022-11-02T17:31:51.610Z,31.37
2022-11-02T17:34:51.823Z,39.03
2022-11-02T17:38:03.289Z,30.20
2022-11-02T17:41:02.119Z,28.03
2022-11-02T17:43:42.652Z,21.50
2022-11-02T17:46:41.691Z,23.27
2022-11-02T17:49:50.465Z,20.57
2022-11-02T17:52:47.393Z,20.93
2022-11-02T17:55:44.492Z,20.67
2022-11-02T17:59:24.910Z,20.70
2022-11-02T18:01:42.146Z,21.57
2022-11-02T18:04:34.770Z,23.53
2022-11-02T18:07:32.627Z,22.90
2022-11-02T18:10:52.705Z,23.17
2022-11-02T18:13:34.845Z,22.60
2022-11-02T18:16:14.118Z,23.83
2022-11-02T18:18:48.554Z,21.37
2022-11-02T18:21:44.090Z,20.63
2022-11-02T18:24:28.196Z,19.97
2022-11-02T18:27:50.640Z,20.53
2022-11-02T18:30:43.180Z,19.80
2022-11-02T18:33:24.355Z,19.67
2022-11-02T18:36:24.472Z,21.70
2022-11-02T18:39:07.825Z,21.83
2022-11-02T18:42:39.312Z,20.87
2022-11-02T18:48:59.298Z,24.33
2022-11-02T18:51:45.959Z,30.13
2022-11-02T18:54:47.654Z,29.23
2022-11-02T18:57:39.837Z,33.53
2022-11-02T19:00:21.940Z,33.00
2022-11-02T19:03:23.694Z,28.57
2022-11-02T19:06:21.246Z,27.43
2022-11-02T19:09:27.685Z,26.37
2022-11-02T19:15:28.171Z,26.00
2022-11-02T19:18:34.428Z,27.80
2022-11-02T19:21:34.932Z,36.43
2022-11-02T19:24:50.357Z,44.43
2022-11-02T19:27:32.113Z,28.77
2022-11-02T19:30:30.756Z,28.57
2022-11-02T19:33:15.620Z,25.70
2022-11-02T19:35:59.669Z,16.00
2022-11-02T19:39:10.044Z,13.00
2022-11-02T19:42:07.729Z,14.37
2022-11-02T19:48:11.668Z,13.70
2022-11-02T19:51:10.886Z,14.20
2022-11-02T19:57:32.161Z,15.00
2022-11-02T20:00:29.252Z,14.00
2022-11-02T20:03:10.116Z,12.97
2022-11-02T20:05:47.209Z,13.00
2022-11-02T20:08:40.679Z,12.90
2022-11-02T20:15:39.619Z,16.30
2022-11-02T20:22:21.615Z,13.53
2022-11-02T20:28:57.337Z,13.30
2022-11-02T20:31:49.333Z,13.20
2022-11-02T20:34:26.727Z,13.40
2022-11-02T20:37:29.211Z,13.87
2022-11-02T20:40:27.493Z,13.30
2022-11-02T20:43:03.286Z,13.60
2022-11-02T20:45:34.934Z,13.00
2022-11-02T20:48:17.931Z,13.63
2022-11-02T20:50:46.746Z,13.10
2022-11-02T20:53:15.484Z,14.80
2022-11-02T20:55:43.702Z,12.30
2022-11-02T20:58:12.182Z,15.93
2022-11-02T21:00:40.529Z,13.60
2022-11-02T21:03:12.750Z,13.20
2022-11-02T21:06:13.275Z,14.07
2022-11-02T21:09:37.068Z,13.47
2022-11-02T21:12:28.125Z,14.33
2022-11-02T21:14:57.977Z,13.83
2022-11-02T21:17:26.458Z,13.90
2022-11-02T21:23:26.727Z,14.10
2022-11-02T21:26:10.393Z,14.70
2022-11-02T21:28:45.139Z,15.47
2022-11-02T21:31:26.497Z,14.17
2022-11-02T21:34:00.083Z,14.10
2022-11-02T21:36:28.541Z,13.93
2022-11-02T21:39:06.143Z,14.30
2022-11-02T21:41:45.208Z,13.90
2022-11-02T21:44:17.416Z,14.13
2022-11-02T21:57:25.526Z,14.60
2022-11-02T21:59:58.918Z,18.97
2022-11-02T22:02:27.496Z,18.83
2022-11-02T22:04:59.613Z,19.63
2022-11-02T22:07:52.539Z,19.17
2022-11-02T22:10:25.928Z,20.07
2022-11-02T22:13:11.651Z,20.47
2022-11-02T22:15:40.044Z,21.23
2022-11-02T22:18:12.201Z,21.27
2022-11-02T22:20:47.798Z,22.63
2022-11-02T22:23:17.968Z,21.20
2022-11-02T22:25:59.253Z,20.37
2022-11-02T22:28:42.253Z,22.30
2022-11-02T22:31:15.904Z,21.60
2022-11-02T22:33:47.719Z,20.67
2022-11-02T22:36:18.522Z,23.50
2022-11-02T22:38:48.443Z,22.10
2022-11-02T22:41:20.318Z,23.13
2022-11-02T22:43:49.211Z,21.80
2022-11-02T22:46:17.544Z,21.83
2022-11-02T22:48:45.667Z,21.50
2022-11-02T22:51:14.879Z,23.97
2022-11-02T22:53:43.043Z,22.50
2022-11-02T22:56:13.091Z,20.73
2022-11-02T22:58:44.411Z,21.50
2022-11-02T23:01:16.404Z,23.10
2022-11-02T23:03:44.983Z,22.20
2022-11-02T23:06:14.141Z,21.87
2022-11-02T23:08:44.787Z,20.60
2022-11-02T23:11:23.249Z,21.70
2022-11-02T23:13:55.931Z,20.20
2022-11-02T23:16:26.414Z,20.33
2022-11-02T23:19:27.175Z,20.57
2022-11-02T23:22:15.600Z,19.90
2022-11-02T23:25:03.058Z,20.47
2022-11-02T23:27:31.985Z,21.57
2022-11-02T23:30:30.619Z,19.97
2022-11-02T23:33:01.321Z,18.83
2022-11-02T23:35:46.680Z,21.47
2022-11-02T23:38:14.868Z,20.87
2022-11-02T23:40:42.902Z,19.40
2022-11-02T23:43:15.889Z,19.43
2022-11-02T23:45:49.850Z,22.30
2022-11-02T23:48:24.719Z,21.60
2022-11-02T23:51:10.458Z,20.63
2022-11-02T23:54:03.640Z,19.30
2022-11-02T23:56:48.696Z,18.30
2022-11-02T23:59:20.059Z,20.77
